Allentown, Arizona
Current Conditions -  °F | °C
As of 11:53 AM on Sunday 21 Dec 2014 (Local Time) from KRQE Reporting Station
Clear Clear  
Wind Chill:   Ceiling: Unl
Heat Index:   Visibility: 10mi
Dew Point: -3°   Wind: 10mph
Humidity: 47%   Direction: 260°W
Pressure: 30.05"   Gusts: NA
Location:  35.2918°N, 109.157°W
Report Text: KRQE 211853Z AUTO 26009KT 10SM CLR 08/M03 A3005 RMK AO2 SLP142 T00781028 TSNO
Loading
Personal Weather Stations






























Interactive Weather Map New forecast layout! Learn more

10-Day Weather Forecast

Advertisements
Track Severe Weather on mobile